Decoded Metar for KDEQ (DE QUEEN in AR, USA) (IATA:DEQ) | Meteo·Mobile Aviation Weather
aviador You're here:

KDEQ Decoded Metar

DE QUEEN in AR, USA
Report Time2018-10-17 03:53:00
UTC Time2018-10-17 05:06:08
Flight Rules Old
WindCalm
Visibility9999 m
Phenomena:N/A
Clouds:Scattered 033 Hf
CeilingNone
Temp11°C (ISA -3)
Dew Point11°C (100% RH)
QNH1025 hPa
Density Alt-276 ft
Elevation348 ft
Report Wrong Elevation
Raw Report
KDEQ 170353Z AUTO 00000KT 10SM SCT033 11/11 A3027 RMK AO2 SLP247
T01110106=

Extra information for KDEQ:More info

Metar Taf Metar & Taf Last 4 Metars F.Rules Stats Wind Profile Meteogram Temp Stats Airport Information Weather charts Add Link Nearby VenuesMetar ALERT Operation Metar Decoded Social comments

AIRNAV info for KDEQ